sensor_id;sensor_type;location;lat;lon;timestamp;temperature;humidity
30893;DHT22;17595;50.884;4.346;2022-12-10T00:00:17;5.20;99.90
30893;DHT22;17595;50.884;4.346;2022-12-10T00:02:42;5.10;99.90
30893;DHT22;17595;50.884;4.346;2022-12-10T00:05:08;5.20;99.90
30893;DHT22;17595;50.884;4.346;2022-12-10T00:07:33;5.20;99.90
30893;DHT22;17595;50.884;4.346;2022-12-10T00:09:59;5.10;99.90
30893;DHT22;17595;50.884;4.346;2022-12-10T00:12:25;4.90;99.90
30893;DHT22;17595;50.884;4.346;2022-12-10T00:14:50;4.50;99.90
30893;DHT22;17595;50.884;4.346;2022-12-10T00:17:16;4.30;99.90
30893;DHT22;17595;50.884;4.346;2022-12-10T00:19:41;4.20;99.90
30893;DHT22;17595;50.884;4.346;2022-12-10T00:22:07;4.20;99.90
30893;DHT22;17595;50.884;4.346;2022-12-10T00:24:33;4.30;99.90
30893;DHT22;17595;50.884;4.346;2022-12-10T00:26:58;4.40;99.90
30893;DHT22;17595;50.884;4.346;2022-12-10T00:29:24;4.50;99.90
30893;DHT22;17595;50.884;4.346;2022-12-10T00:31:49;4.60;99.90
30893;DHT22;17595;50.884;4.346;2022-12-10T00:34:15;4.60;99.90
30893;DHT22;17595;50.884;4.346;2022-12-10T00:36:44;4.70;99.90
30893;DHT22;17595;50.884;4.346;2022-12-10T00:39:11;4.80;99.90
30893;DHT22;17595;50.884;4.346;2022-12-10T00:41:37;4.90;99.90
30893;DHT22;17595;50.884;4.346;2022-12-10T00:44:03;5.20;99.90
30893;DHT22;17595;50.884;4.346;2022-12-10T00:46:29;5.30;99.90
30893;DHT22;17595;50.884;4.346;2022-12-10T00:48:54;5.10;99.90
30893;DHT22;17595;50.884;4.346;2022-12-10T00:51:22;5.00;99.90
30893;DHT22;17595;50.884;4.346;2022-12-10T00:53:50;4.90;99.90
30893;DHT22;17595;50.884;4.346;2022-12-10T00:56:18;4.90;99.90
30893;DHT22;17595;50.884;4.346;2022-12-10T00:58:44;4.90;99.90
30893;DHT22;17595;50.884;4.346;2022-12-10T01:01:16;4.80;99.90
30893;DHT22;17595;50.884;4.346;2022-12-10T01:03:43;4.90;99.90
30893;DHT22;17595;50.884;4.346;2022-12-10T01:06:29;5.00;99.90
30893;DHT22;17595;50.884;4.346;2022-12-10T01:08:58;4.90;99.90
30893;DHT22;17595;50.884;4.346;2022-12-10T01:11:30;4.90;99.90
30893;DHT22;17595;50.884;4.346;2022-12-10T01:13:56;4.90;99.90
30893;DHT22;17595;50.884;4.346;2022-12-10T01:16:23;4.90;99.90
30893;DHT22;17595;50.884;4.346;2022-12-10T01:18:49;5.10;99.90
30893;DHT22;17595;50.884;4.346;2022-12-10T01:21:18;5.20;99.90
30893;DHT22;17595;50.884;4.346;2022-12-10T01:23:46;5.30;99.90
30893;DHT22;17595;50.884;4.346;2022-12-10T01:26:16;5.30;99.90
30893;DHT22;17595;50.884;4.346;2022-12-10T01:28:43;5.40;99.90
30893;DHT22;17595;50.884;4.346;2022-12-10T01:31:11;5.40;99.90
30893;DHT22;17595;50.884;4.346;2022-12-10T01:33:37;5.60;99.90
30893;DHT22;17595;50.884;4.346;2022-12-10T01:36:09;5.60;99.90
30893;DHT22;17595;50.884;4.346;2022-12-10T01:38:36;5.50;99.90
30893;DHT22;17595;50.884;4.346;2022-12-10T01:41:02;5.40;99.90
30893;DHT22;17595;50.884;4.346;2022-12-10T01:43:29;5.40;99.90
30893;DHT22;17595;50.884;4.346;2022-12-10T01:46:13;5.40;99.90
30893;DHT22;17595;50.884;4.346;2022-12-10T01:48:38;5.30;99.90
30893;DHT22;17595;50.884;4.346;2022-12-10T01:51:04;5.20;99.90
30893;DHT22;17595;50.884;4.346;2022-12-10T01:53:30;5.20;99.90
30893;DHT22;17595;50.884;4.346;2022-12-10T01:55:56;5.20;99.90
30893;DHT22;17595;50.884;4.346;2022-12-10T01:58:22;5.20;99.90
30893;DHT22;17595;50.884;4.346;2022-12-10T02:01:14;5.30;99.90
30893;DHT22;17595;50.884;4.346;2022-12-10T02:06:37;5.00;99.90
30893;DHT22;17595;50.884;4.346;2022-12-10T02:14:48;3.90;99.90
30893;DHT22;17595;50.884;4.346;2022-12-10T02:17:20;3.90;99.90
30893;DHT22;17595;50.884;4.346;2022-12-10T02:22:38;4.10;99.90
30893;DHT22;17595;50.884;4.346;2022-12-10T02:25:06;4.20;99.90
30893;DHT22;17595;50.884;4.346;2022-12-10T02:30:05;4.30;99.90
30893;DHT22;17595;50.884;4.346;2022-12-10T02:32:37;4.30;99.90
30893;DHT22;17595;50.884;4.346;2022-12-10T02:35:06;4.40;99.90
30893;DHT22;17595;50.884;4.346;2022-12-10T02:37:49;4.40;99.90
30893;DHT22;17595;50.884;4.346;2022-12-10T02:40:30;4.50;99.90
30893;DHT22;17595;50.884;4.346;2022-12-10T02:42:56;4.50;99.90
30893;DHT22;17595;50.884;4.346;2022-12-10T02:45:24;4.40;99.90
30893;DHT22;17595;50.884;4.346;2022-12-10T02:47:54;4.50;99.90
30893;DHT22;17595;50.884;4.346;2022-12-10T02:50:21;4.20;99.90
30893;DHT22;17595;50.884;4.346;2022-12-10T02:52:47;4.00;99.90
30893;DHT22;17595;50.884;4.346;2022-12-10T02:55:14;3.90;99.90
30893;DHT22;17595;50.884;4.346;2022-12-10T03:08:05;4.10;99.90
30893;DHT22;17595;50.884;4.346;2022-12-10T03:13:07;4.20;99.90
30893;DHT22;17595;50.884;4.346;2022-12-10T03:15:38;4.20;99.90
30893;DHT22;17595;50.884;4.346;2022-12-10T03:18:06;4.30;99.90
30893;DHT22;17595;50.884;4.346;2022-12-10T03:20:36;4.30;99.90
30893;DHT22;17595;50.884;4.346;2022-12-10T03:23:03;4.30;99.90
30893;DHT22;17595;50.884;4.346;2022-12-10T03:25:32;4.30;99.90
30893;DHT22;17595;50.884;4.346;2022-12-10T03:27:59;4.30;99.90
30893;DHT22;17595;50.884;4.346;2022-12-10T03:30:26;4.30;99.90
30893;DHT22;17595;50.884;4.346;2022-12-10T03:32:52;4.30;99.90
30893;DHT22;17595;50.884;4.346;2022-12-10T03:35:20;4.30;99.90
30893;DHT22;17595;50.884;4.346;2022-12-10T03:37:47;4.20;99.90
30893;DHT22;17595;50.884;4.346;2022-12-10T03:40:16;4.30;99.90
30893;DHT22;17595;50.884;4.346;2022-12-10T03:42:43;4.30;99.90
30893;DHT22;17595;50.884;4.346;2022-12-10T03:45:09;4.40;99.90
30893;DHT22;17595;50.884;4.346;2022-12-10T03:47:34;4.30;99.90
30893;DHT22;17595;50.884;4.346;2022-12-10T03:50:00;4.40;99.90
30893;DHT22;17595;50.884;4.346;2022-12-10T03:52:26;4.40;99.90
30893;DHT22;17595;50.884;4.346;2022-12-10T03:54:51;4.50;99.90
30893;DHT22;17595;50.884;4.346;2022-12-10T03:57:17;4.60;99.90
30893;DHT22;17595;50.884;4.346;2022-12-10T03:59:43;4.50;99.90
30893;DHT22;17595;50.884;4.346;2022-12-10T04:02:08;4.50;99.90
30893;DHT22;17595;50.884;4.346;2022-12-10T04:04:34;4.50;99.90
30893;DHT22;17595;50.884;4.346;2022-12-10T04:06:59;4.50;99.90
30893;DHT22;17595;50.884;4.346;2022-12-10T04:09:25;4.60;99.90
30893;DHT22;17595;50.884;4.346;2022-12-10T04:11:55;4.70;99.90
30893;DHT22;17595;50.884;4.346;2022-12-10T04:14:21;4.60;99.90
30893;DHT22;17595;50.884;4.346;2022-12-10T04:17:05;4.50;99.90
30893;DHT22;17595;50.884;4.346;2022-12-10T04:19:31;4.40;99.90
30893;DHT22;17595;50.884;4.346;2022-12-10T04:21:56;4.30;99.90
30893;DHT22;17595;50.884;4.346;2022-12-10T04:24:40;4.40;99.90
30893;DHT22;17595;50.884;4.346;2022-12-10T04:27:30;4.30;99.90
30893;DHT22;17595;50.884;4.346;2022-12-10T04:29:57;4.40;99.90
30893;DHT22;17595;50.884;4.346;2022-12-10T04:32:24;4.50;99.90
30893;DHT22;17595;50.884;4.346;2022-12-10T04:34:50;4.50;99.90
30893;DHT22;17595;50.884;4.346;2022-12-10T04:37:16;4.50;99.90
30893;DHT22;17595;50.884;4.346;2022-12-10T04:39:41;4.40;99.90
30893;DHT22;17595;50.884;4.346;2022-12-10T04:42:08;4.40;99.90
30893;DHT22;17595;50.884;4.346;2022-12-10T04:44:34;4.40;99.90
30893;DHT22;17595;50.884;4.346;2022-12-10T04:47:00;4.40;99.90
30893;DHT22;17595;50.884;4.346;2022-12-10T04:49:26;4.40;99.90
30893;DHT22;17595;50.884;4.346;2022-12-10T04:51:52;4.50;99.90
30893;DHT22;17595;50.884;4.346;2022-12-10T04:54:19;4.40;99.90
30893;DHT22;17595;50.884;4.346;2022-12-10T04:56:45;4.30;99.90
30893;DHT22;17595;50.884;4.346;2022-12-10T04:59:10;4.40;99.90
30893;DHT22;17595;50.884;4.346;2022-12-10T05:01:36;4.40;99.90
30893;DHT22;17595;50.884;4.346;2022-12-10T05:04:04;4.40;99.90
30893;DHT22;17595;50.884;4.346;2022-12-10T05:06:30;4.50;99.90
30893;DHT22;17595;50.884;4.346;2022-12-10T05:08:56;4.40;99.90
30893;DHT22;17595;50.884;4.346;2022-12-10T05:11:24;4.30;99.90
30893;DHT22;17595;50.884;4.346;2022-12-10T05:13:50;4.30;99.90
30893;DHT22;17595;50.884;4.346;2022-12-10T05:16:18;4.30;99.90
30893;DHT22;17595;50.884;4.346;2022-12-10T05:18:44;4.30;99.90
30893;DHT22;17595;50.884;4.346;2022-12-10T05:21:13;4.30;99.90
30893;DHT22;17595;50.884;4.346;2022-12-10T05:23:40;4.30;99.90
30893;DHT22;17595;50.884;4.346;2022-12-10T05:26:08;4.20;99.90
30893;DHT22;17595;50.884;4.346;2022-12-10T05:28:39;4.30;99.90
30893;DHT22;17595;50.884;4.346;2022-12-10T05:31:05;4.50;99.90
30893;DHT22;17595;50.884;4.346;2022-12-10T05:33:36;4.60;99.90
30893;DHT22;17595;50.884;4.346;2022-12-10T05:36:03;4.50;99.90
30893;DHT22;17595;50.884;4.346;2022-12-10T05:38:31;4.50;99.90
30893;DHT22;17595;50.884;4.346;2022-12-10T05:41:20;4.40;99.90
30893;DHT22;17595;50.884;4.346;2022-12-10T05:43:47;4.30;99.90
30893;DHT22;17595;50.884;4.346;2022-12-10T05:46:21;4.20;99.90
30893;DHT22;17595;50.884;4.346;2022-12-10T05:48:48;4.20;99.90
30893;DHT22;17595;50.884;4.346;2022-12-10T05:51:20;4.20;99.90
30893;DHT22;17595;50.884;4.346;2022-12-10T05:53:46;4.10;99.90
30893;DHT22;17595;50.884;4.346;2022-12-10T05:56:17;4.20;99.90
30893;DHT22;17595;50.884;4.346;2022-12-10T05:58:45;4.30;99.90
30893;DHT22;17595;50.884;4.346;2022-12-10T06:01:22;4.50;99.90
30893;DHT22;17595;50.884;4.346;2022-12-10T06:03:49;4.70;99.90
30893;DHT22;17595;50.884;4.346;2022-12-10T06:06:24;4.70;99.90
30893;DHT22;17595;50.884;4.346;2022-12-10T06:08:50;4.60;99.90
30893;DHT22;17595;50.884;4.346;2022-12-10T06:11:17;4.50;99.90
30893;DHT22;17595;50.884;4.346;2022-12-10T06:13:43;4.50;99.90
30893;DHT22;17595;50.884;4.346;2022-12-10T06:16:11;4.50;99.90
30893;DHT22;17595;50.884;4.346;2022-12-10T06:18:37;4.50;99.90
30893;DHT22;17595;50.884;4.346;2022-12-10T06:21:08;4.60;99.90
30893;DHT22;17595;50.884;4.346;2022-12-10T06:23:35;4.80;99.90
30893;DHT22;17595;50.884;4.346;2022-12-10T06:26:09;4.70;99.90
30893;DHT22;17595;50.884;4.346;2022-12-10T06:28:35;4.60;99.90
30893;DHT22;17595;50.884;4.346;2022-12-10T06:31:01;4.50;99.90
30893;DHT22;17595;50.884;4.346;2022-12-10T06:33:27;4.50;99.90
30893;DHT22;17595;50.884;4.346;2022-12-10T06:35:53;4.40;99.90
30893;DHT22;17595;50.884;4.346;2022-12-10T06:38:18;4.40;99.90
30893;DHT22;17595;50.884;4.346;2022-12-10T06:40:44;4.30;99.90
30893;DHT22;17595;50.884;4.346;2022-12-10T06:43:10;4.30;99.90
30893;DHT22;17595;50.884;4.346;2022-12-10T06:45:42;4.30;99.90
30893;DHT22;17595;50.884;4.346;2022-12-10T06:48:08;4.20;99.90
30893;DHT22;17595;50.884;4.346;2022-12-10T06:50:34;4.20;99.90
30893;DHT22;17595;50.884;4.346;2022-12-10T06:53:00;4.20;99.90
30893;DHT22;17595;50.884;4.346;2022-12-10T06:55:26;4.20;99.90
30893;DHT22;17595;50.884;4.346;2022-12-10T06:57:52;4.10;99.90
30893;DHT22;17595;50.884;4.346;2022-12-10T07:00:19;4.10;99.90
30893;DHT22;17595;50.884;4.346;2022-12-10T07:02:45;4.10;99.90
30893;DHT22;17595;50.884;4.346;2022-12-10T07:05:11;4.10;99.90
30893;DHT22;17595;50.884;4.346;2022-12-10T07:07:37;4.10;99.90
30893;DHT22;17595;50.884;4.346;2022-12-10T07:10:03;4.20;99.90
30893;DHT22;17595;50.884;4.346;2022-12-10T07:12:29;4.20;99.90
30893;DHT22;17595;50.884;4.346;2022-12-10T07:14:55;4.30;99.90
30893;DHT22;17595;50.884;4.346;2022-12-10T07:17:20;4.30;99.90
30893;DHT22;17595;50.884;4.346;2022-12-10T07:19:46;4.30;99.90
30893;DHT22;17595;50.884;4.346;2022-12-10T07:22:11;4.30;99.90
30893;DHT22;17595;50.884;4.346;2022-12-10T07:24:37;4.10;99.90
30893;DHT22;17595;50.884;4.346;2022-12-10T07:27:07;4.10;99.90
30893;DHT22;17595;50.884;4.346;2022-12-10T07:29:33;4.00;99.90
30893;DHT22;17595;50.884;4.346;2022-12-10T07:31:58;4.00;99.90
30893;DHT22;17595;50.884;4.346;2022-12-10T07:34:25;3.80;99.90
30893;DHT22;17595;50.884;4.346;2022-12-10T07:36:51;3.80;99.90
30893;DHT22;17595;50.884;4.346;2022-12-10T07:39:17;3.90;99.90
30893;DHT22;17595;50.884;4.346;2022-12-10T07:41:47;4.00;99.90
30893;DHT22;17595;50.884;4.346;2022-12-10T07:44:15;4.10;99.90
30893;DHT22;17595;50.884;4.346;2022-12-10T07:46:42;4.40;99.90
30893;DHT22;17595;50.884;4.346;2022-12-10T07:49:07;4.40;99.90
30893;DHT22;17595;50.884;4.346;2022-12-10T07:51:33;4.40;99.90
30893;DHT22;17595;50.884;4.346;2022-12-10T07:53:59;4.40;99.90
30893;DHT22;17595;50.884;4.346;2022-12-10T07:56:25;4.30;99.90
30893;DHT22;17595;50.884;4.346;2022-12-10T07:58:52;4.30;99.90
30893;DHT22;17595;50.884;4.346;2022-12-10T08:01:26;4.20;99.90
30893;DHT22;17595;50.884;4.346;2022-12-10T08:03:54;4.30;99.90
30893;DHT22;17595;50.884;4.346;2022-12-10T08:06:21;4.30;99.90
30893;DHT22;17595;50.884;4.346;2022-12-10T08:08:47;4.40;99.90
30893;DHT22;17595;50.884;4.346;2022-12-10T08:11:14;4.50;99.90
30893;DHT22;17595;50.884;4.346;2022-12-10T08:13:40;4.70;99.90
30893;DHT22;17595;50.884;4.346;2022-12-10T08:16:10;4.80;99.90
30893;DHT22;17595;50.884;4.346;2022-12-10T08:18:37;4.60;99.90
30893;DHT22;17595;50.884;4.346;2022-12-10T08:21:23;4.50;99.90
30893;DHT22;17595;50.884;4.346;2022-12-10T08:23:49;4.40;99.90
30893;DHT22;17595;50.884;4.346;2022-12-10T08:26:18;4.50;99.90
30893;DHT22;17595;50.884;4.346;2022-12-10T08:28:45;4.50;99.90
30893;DHT22;17595;50.884;4.346;2022-12-10T08:31:12;4.50;99.90
30893;DHT22;17595;50.884;4.346;2022-12-10T08:33:39;4.50;99.90
30893;DHT22;17595;50.884;4.346;2022-12-10T08:36:06;4.50;99.90
30893;DHT22;17595;50.884;4.346;2022-12-10T08:38:32;4.50;99.90
30893;DHT22;17595;50.884;4.346;2022-12-10T08:40:58;4.70;99.90
30893;DHT22;17595;50.884;4.346;2022-12-10T08:43:25;4.80;99.90
30893;DHT22;17595;50.884;4.346;2022-12-10T08:45:51;4.90;99.90
30893;DHT22;17595;50.884;4.346;2022-12-10T08:48:16;4.90;99.90
30893;DHT22;17595;50.884;4.346;2022-12-10T08:50:42;5.00;99.90
30893;DHT22;17595;50.884;4.346;2022-12-10T08:53:08;5.10;99.90
30893;DHT22;17595;50.884;4.346;2022-12-10T08:55:37;4.90;99.90
30893;DHT22;17595;50.884;4.346;2022-12-10T08:58:03;4.70;99.90
30893;DHT22;17595;50.884;4.346;2022-12-10T09:00:28;4.60;99.90
30893;DHT22;17595;50.884;4.346;2022-12-10T09:02:54;4.60;99.90
30893;DHT22;17595;50.884;4.346;2022-12-10T09:05:19;4.50;99.90
30893;DHT22;17595;50.884;4.346;2022-12-10T09:07:45;4.40;99.90
30893;DHT22;17595;50.884;4.346;2022-12-10T09:10:11;4.50;99.90
30893;DHT22;17595;50.884;4.346;2022-12-10T09:12:37;4.60;99.90
30893;DHT22;17595;50.884;4.346;2022-12-10T09:15:04;4.60;99.90
30893;DHT22;17595;50.884;4.346;2022-12-10T09:17:30;4.70;99.90
30893;DHT22;17595;50.884;4.346;2022-12-10T09:19:56;4.60;99.90
30893;DHT22;17595;50.884;4.346;2022-12-10T09:22:21;4.50;99.90
30893;DHT22;17595;50.884;4.346;2022-12-10T09:24:47;4.60;99.90
30893;DHT22;17595;50.884;4.346;2022-12-10T09:27:13;4.60;99.90
30893;DHT22;17595;50.884;4.346;2022-12-10T09:29:38;4.90;99.90
30893;DHT22;17595;50.884;4.346;2022-12-10T09:32:04;5.10;99.90
30893;DHT22;17595;50.884;4.346;2022-12-10T09:34:30;5.20;99.90
30893;DHT22;17595;50.884;4.346;2022-12-10T09:36:55;5.10;99.90
30893;DHT22;17595;50.884;4.346;2022-12-10T09:39:21;5.00;99.90
30893;DHT22;17595;50.884;4.346;2022-12-10T09:44:43;5.00;99.90
30893;DHT22;17595;50.884;4.346;2022-12-10T09:47:12;5.10;99.90
30893;DHT22;17595;50.884;4.346;2022-12-10T09:52:38;5.40;99.90
30893;DHT22;17595;50.884;4.346;2022-12-10T09:55:11;5.40;99.90
30893;DHT22;17595;50.884;4.346;2022-12-10T09:57:47;5.30;99.90
30893;DHT22;17595;50.884;4.346;2022-12-10T10:00:28;5.20;99.90
30893;DHT22;17595;50.884;4.346;2022-12-10T10:02:57;5.30;99.90
30893;DHT22;17595;50.884;4.346;2022-12-10T10:05:28;5.30;99.90
30893;DHT22;17595;50.884;4.346;2022-12-10T10:07:57;5.40;99.90
30893;DHT22;17595;50.884;4.346;2022-12-10T10:10:25;5.30;99.90
30893;DHT22;17595;50.884;4.346;2022-12-10T10:12:55;5.10;99.90
30893;DHT22;17595;50.884;4.346;2022-12-10T10:15:28;5.10;99.90
30893;DHT22;17595;50.884;4.346;2022-12-10T10:17:56;5.30;99.90
30893;DHT22;17595;50.884;4.346;2022-12-10T10:20:23;5.20;99.90
30893;DHT22;17595;50.884;4.346;2022-12-10T10:22:49;5.30;99.90
30893;DHT22;17595;50.884;4.346;2022-12-10T10:25:17;5.50;99.90
30893;DHT22;17595;50.884;4.346;2022-12-10T10:27:44;5.40;99.90
30893;DHT22;17595;50.884;4.346;2022-12-10T10:30:18;5.30;99.90
30893;DHT22;17595;50.884;4.346;2022-12-10T10:32:47;5.20;99.90
30893;DHT22;17595;50.884;4.346;2022-12-10T10:35:34;5.30;99.90
30893;DHT22;17595;50.884;4.346;2022-12-10T10:38:13;5.50;99.90
30893;DHT22;17595;50.884;4.346;2022-12-10T10:40:42;5.40;99.90
30893;DHT22;17595;50.884;4.346;2022-12-10T10:43:34;5.30;99.90
30893;DHT22;17595;50.884;4.346;2022-12-10T10:48:36;5.40;99.90
30893;DHT22;17595;50.884;4.346;2022-12-10T10:51:19;5.40;99.90
30893;DHT22;17595;50.884;4.346;2022-12-10T10:53:46;5.50;99.90
30893;DHT22;17595;50.884;4.346;2022-12-10T11:01:18;5.80;99.90
30893;DHT22;17595;50.884;4.346;2022-12-10T11:03:49;5.80;99.90
30893;DHT22;17595;50.884;4.346;2022-12-10T11:06:16;5.90;99.90
30893;DHT22;17595;50.884;4.346;2022-12-10T11:08:43;6.00;99.90
30893;DHT22;17595;50.884;4.346;2022-12-10T11:11:36;5.80;99.90
30893;DHT22;17595;50.884;4.346;2022-12-10T11:14:30;5.80;99.90
30893;DHT22;17595;50.884;4.346;2022-12-10T11:20:21;5.70;99.90
30893;DHT22;17595;50.884;4.346;2022-12-10T11:23:01;5.60;99.90
30893;DHT22;17595;50.884;4.346;2022-12-10T11:25:48;5.80;99.90
30893;DHT22;17595;50.884;4.346;2022-12-10T11:34:27;6.00;99.90
30893;DHT22;17595;50.884;4.346;2022-12-10T11:39:55;6.20;99.90
30893;DHT22;17595;50.884;4.346;2022-12-10T11:51:26;6.60;99.90
30893;DHT22;17595;50.884;4.346;2022-12-10T11:56:38;6.30;99.90
30893;DHT22;17595;50.884;4.346;2022-12-10T12:00:18;6.30;99.90
30893;DHT22;17595;50.884;4.346;2022-12-10T12:07:42;6.40;99.90
30893;DHT22;17595;50.884;4.346;2022-12-10T12:12:59;6.60;99.90
30893;DHT22;17595;50.884;4.346;2022-12-10T12:15:37;6.50;99.90
30893;DHT22;17595;50.884;4.346;2022-12-10T12:18:11;6.40;99.90
30893;DHT22;17595;50.884;4.346;2022-12-10T12:20:44;6.50;99.90
30893;DHT22;17595;50.884;4.346;2022-12-10T12:23:17;6.50;99.90
30893;DHT22;17595;50.884;4.346;2022-12-10T12:25:47;6.50;99.90
30893;DHT22;17595;50.884;4.346;2022-12-10T12:28:22;6.60;99.90
30893;DHT22;17595;50.884;4.346;2022-12-10T12:30:57;6.40;99.90
30893;DHT22;17595;50.884;4.346;2022-12-10T12:33:41;6.40;99.90
30893;DHT22;17595;50.884;4.346;2022-12-10T12:36:20;6.30;99.90
30893;DHT22;17595;50.884;4.346;2022-12-10T12:39:11;5.90;99.90
30893;DHT22;17595;50.884;4.346;2022-12-10T12:41:55;6.00;99.90
30893;DHT22;17595;50.884;4.346;2022-12-10T12:47:39;5.90;99.90
30893;DHT22;17595;50.884;4.346;2022-12-10T12:53:12;5.90;99.90
30893;DHT22;17595;50.884;4.346;2022-12-10T12:55:54;5.90;99.90
30893;DHT22;17595;50.884;4.346;2022-12-10T12:58:51;6.00;99.90
30893;DHT22;17595;50.884;4.346;2022-12-10T13:01:37;6.00;99.90
30893;DHT22;17595;50.884;4.346;2022-12-10T13:04:05;6.10;99.90
30893;DHT22;17595;50.884;4.346;2022-12-10T13:06:35;6.10;99.90
30893;DHT22;17595;50.884;4.346;2022-12-10T13:11:46;6.10;99.90
30893;DHT22;17595;50.884;4.346;2022-12-10T13:14:33;6.10;99.90
30893;DHT22;17595;50.884;4.346;2022-12-10T13:17:34;6.20;99.90
30893;DHT22;17595;50.884;4.346;2022-12-10T13:20:28;6.20;99.90
30893;DHT22;17595;50.884;4.346;2022-12-10T13:23:26;6.20;99.90
30893;DHT22;17595;50.884;4.346;2022-12-10T13:28:51;6.10;99.90
30893;DHT22;17595;50.884;4.346;2022-12-10T13:31:17;6.10;99.90
30893;DHT22;17595;50.884;4.346;2022-12-10T13:41:28;6.20;99.90
30893;DHT22;17595;50.884;4.346;2022-12-10T13:44:48;6.30;99.90
30893;DHT22;17595;50.884;4.346;2022-12-10T13:47:48;6.30;99.90
30893;DHT22;17595;50.884;4.346;2022-12-10T13:50:35;6.30;99.90
30893;DHT22;17595;50.884;4.346;2022-12-10T13:55:59;6.40;99.90
30893;DHT22;17595;50.884;4.346;2022-12-10T13:58:37;6.40;99.90
30893;DHT22;17595;50.884;4.346;2022-12-10T14:01:40;6.30;99.90
30893;DHT22;17595;50.884;4.346;2022-12-10T14:06:38;6.20;99.90
30893;DHT22;17595;50.884;4.346;2022-12-10T14:09:27;6.10;99.90
30893;DHT22;17595;50.884;4.346;2022-12-10T14:11:56;6.20;99.90
30893;DHT22;17595;50.884;4.346;2022-12-10T14:14:45;6.30;99.90
30893;DHT22;17595;50.884;4.346;2022-12-10T14:17:18;6.30;99.90
30893;DHT22;17595;50.884;4.346;2022-12-10T14:19:47;6.30;99.90
30893;DHT22;17595;50.884;4.346;2022-12-10T14:22:20;6.50;99.90
30893;DHT22;17595;50.884;4.346;2022-12-10T14:24:49;6.40;99.90
30893;DHT22;17595;50.884;4.346;2022-12-10T14:27:23;6.30;99.90
30893;DHT22;17595;50.884;4.346;2022-12-10T14:30:16;6.20;99.90
30893;DHT22;17595;50.884;4.346;2022-12-10T14:32:42;6.20;99.90
30893;DHT22;17595;50.884;4.346;2022-12-10T14:35:14;6.30;99.90
30893;DHT22;17595;50.884;4.346;2022-12-10T14:37:43;6.40;99.90
30893;DHT22;17595;50.884;4.346;2022-12-10T14:40:17;6.40;99.90
30893;DHT22;17595;50.884;4.346;2022-12-10T14:42:44;6.50;99.90
30893;DHT22;17595;50.884;4.346;2022-12-10T14:45:15;6.40;99.90
30893;DHT22;17595;50.884;4.346;2022-12-10T14:47:41;6.40;99.90
30893;DHT22;17595;50.884;4.346;2022-12-10T14:50:15;6.40;99.90
30893;DHT22;17595;50.884;4.346;2022-12-10T14:52:50;6.30;99.90
30893;DHT22;17595;50.884;4.346;2022-12-10T14:55:20;6.30;99.90
30893;DHT22;17595;50.884;4.346;2022-12-10T14:57:57;6.30;99.90
30893;DHT22;17595;50.884;4.346;2022-12-10T15:00:24;6.40;99.90
30893;DHT22;17595;50.884;4.346;2022-12-10T15:03:01;6.20;99.90
30893;DHT22;17595;50.884;4.346;2022-12-10T15:05:32;6.20;99.90
30893;DHT22;17595;50.884;4.346;2022-12-10T15:07:59;6.20;99.90
30893;DHT22;17595;50.884;4.346;2022-12-10T15:10:38;6.30;99.90
30893;DHT22;17595;50.884;4.346;2022-12-10T15:13:05;6.30;99.90
30893;DHT22;17595;50.884;4.346;2022-12-10T15:15:37;6.30;99.90
30893;DHT22;17595;50.884;4.346;2022-12-10T15:23:18;6.10;99.90
30893;DHT22;17595;50.884;4.346;2022-12-10T15:28:36;6.20;99.90
30893;DHT22;17595;50.884;4.346;2022-12-10T15:33:51;6.30;99.90
30893;DHT22;17595;50.884;4.346;2022-12-10T15:36:23;6.40;99.90
30893;DHT22;17595;50.884;4.346;2022-12-10T15:38:50;6.30;99.90
30893;DHT22;17595;50.884;4.346;2022-12-10T15:41:24;6.40;99.90
30893;DHT22;17595;50.884;4.346;2022-12-10T15:44:00;6.30;99.90
30893;DHT22;17595;50.884;4.346;2022-12-10T15:46:26;6.30;99.90
30893;DHT22;17595;50.884;4.346;2022-12-10T15:48:52;6.30;99.90
30893;DHT22;17595;50.884;4.346;2022-12-10T15:51:17;6.30;99.90
30893;DHT22;17595;50.884;4.346;2022-12-10T15:53:43;6.40;99.90
30893;DHT22;17595;50.884;4.346;2022-12-10T15:56:09;6.40;99.90
30893;DHT22;17595;50.884;4.346;2022-12-10T15:58:34;6.60;99.90
30893;DHT22;17595;50.884;4.346;2022-12-10T16:01:00;6.70;99.90
30893;DHT22;17595;50.884;4.346;2022-12-10T16:03:28;6.80;99.90
30893;DHT22;17595;50.884;4.346;2022-12-10T16:05:54;6.80;99.90
30893;DHT22;17595;50.884;4.346;2022-12-10T16:08:20;6.70;99.90
30893;DHT22;17595;50.884;4.346;2022-12-10T16:10:48;6.60;99.90
30893;DHT22;17595;50.884;4.346;2022-12-10T16:13:32;6.50;99.90
30893;DHT22;17595;50.884;4.346;2022-12-10T16:16:07;6.40;99.90
30893;DHT22;17595;50.884;4.346;2022-12-10T16:18:34;6.50;99.90
30893;DHT22;17595;50.884;4.346;2022-12-10T16:21:03;6.40;99.90
30893;DHT22;17595;50.884;4.346;2022-12-10T16:23:29;6.40;99.90
30893;DHT22;17595;50.884;4.346;2022-12-10T16:25:54;6.50;99.90
30893;DHT22;17595;50.884;4.346;2022-12-10T16:28:21;6.40;99.90
30893;DHT22;17595;50.884;4.346;2022-12-10T16:30:56;6.30;99.90
30893;DHT22;17595;50.884;4.346;2022-12-10T16:33:23;6.30;99.90
30893;DHT22;17595;50.884;4.346;2022-12-10T16:35:51;6.20;99.90
30893;DHT22;17595;50.884;4.346;2022-12-10T16:38:18;6.20;99.90
30893;DHT22;17595;50.884;4.346;2022-12-10T16:40:44;6.10;99.90
30893;DHT22;17595;50.884;4.346;2022-12-10T16:43:24;6.10;99.90
30893;DHT22;17595;50.884;4.346;2022-12-10T16:45:51;6.00;99.90
30893;DHT22;17595;50.884;4.346;2022-12-10T16:48:17;6.20;99.90
30893;DHT22;17595;50.884;4.346;2022-12-10T16:50:44;6.20;99.90
30893;DHT22;17595;50.884;4.346;2022-12-10T16:53:23;6.30;99.90
30893;DHT22;17595;50.884;4.346;2022-12-10T16:55:49;6.40;99.90
30893;DHT22;17595;50.884;4.346;2022-12-10T16:58:15;6.40;99.90
30893;DHT22;17595;50.884;4.346;2022-12-10T17:00:43;6.50;99.90
30893;DHT22;17595;50.884;4.346;2022-12-10T17:03:11;6.40;99.90
30893;DHT22;17595;50.884;4.346;2022-12-10T17:05:51;6.40;99.90
30893;DHT22;17595;50.884;4.346;2022-12-10T17:08:18;6.30;99.90
30893;DHT22;17595;50.884;4.346;2022-12-10T17:10:44;6.30;99.90
30893;DHT22;17595;50.884;4.346;2022-12-10T17:13:29;6.40;99.90
30893;DHT22;17595;50.884;4.346;2022-12-10T17:15:55;6.20;99.90
30893;DHT22;17595;50.884;4.346;2022-12-10T17:18:21;6.10;99.90
30893;DHT22;17595;50.884;4.346;2022-12-10T17:20:47;6.00;99.90
30893;DHT22;17595;50.884;4.346;2022-12-10T17:23:14;6.00;99.90
30893;DHT22;17595;50.884;4.346;2022-12-10T17:25:40;6.10;99.90
30893;DHT22;17595;50.884;4.346;2022-12-10T17:28:10;6.10;99.90
30893;DHT22;17595;50.884;4.346;2022-12-10T17:30:37;6.20;99.90
30893;DHT22;17595;50.884;4.346;2022-12-10T17:33:03;6.40;99.90
30893;DHT22;17595;50.884;4.346;2022-12-10T17:35:29;6.40;99.90
30893;DHT22;17595;50.884;4.346;2022-12-10T17:37:54;6.30;99.90
30893;DHT22;17595;50.884;4.346;2022-12-10T17:40:21;6.30;99.90
30893;DHT22;17595;50.884;4.346;2022-12-10T17:42:47;6.30;99.90
30893;DHT22;17595;50.884;4.346;2022-12-10T17:45:16;6.20;99.90
30893;DHT22;17595;50.884;4.346;2022-12-10T17:47:43;6.10;99.90
30893;DHT22;17595;50.884;4.346;2022-12-10T17:50:27;6.10;99.90